createdAt,value
2023-04-09T00:02:25.000Z,38.1
2023-04-09T00:07:26.000Z,37.54
2023-04-09T00:12:25.000Z,36.73
2023-04-09T00:17:25.000Z,34.81
2023-04-09T00:22:26.000Z,33.13
2023-04-09T00:27:26.000Z,30.42
2023-04-09T00:32:25.000Z,29.84
2023-04-09T00:37:25.000Z,29.06
2023-04-09T00:42:25.000Z,29.42
2023-04-09T00:47:25.000Z,30.37
2023-04-09T00:52:25.000Z,29.48
2023-04-09T00:57:25.000Z,28.85
2023-04-09T01:02:25.000Z,29.97
2023-04-09T01:07:25.000Z,30.16
2023-04-09T01:12:26.000Z,30.03
2023-04-09T01:17:26.000Z,31.06
2023-04-09T01:22:25.000Z,30.18
2023-04-09T01:27:25.000Z,30.81
2023-04-09T01:32:25.000Z,31.44
2023-04-09T01:37:26.000Z,35.71
2023-04-09T01:42:25.000Z,38.87
2023-04-09T01:47:25.000Z,38.06
2023-04-09T01:52:26.000Z,37.03
2023-04-09T01:57:26.000Z,34.74
2023-04-09T02:02:25.000Z,31.76
2023-04-09T02:07:25.000Z,31.4
2023-04-09T02:12:26.000Z,29.88
2023-04-09T02:17:25.000Z,29.54
2023-04-09T02:22:25.000Z,28.79
2023-04-09T02:27:25.000Z,28.15
2023-04-09T02:32:25.000Z,27.15
2023-04-09T02:37:25.000Z,27.33
2023-04-09T02:42:25.000Z,24.18
2023-04-09T02:47:25.000Z,22.79
2023-04-09T02:52:26.000Z,22.94
2023-04-09T02:57:25.000Z,26.15
2023-04-09T03:02:25.000Z,26.9
2023-04-09T03:07:26.000Z,26.87
2023-04-09T03:12:26.000Z,29.07
2023-04-09T03:17:25.000Z,33.46
2023-04-09T03:22:25.000Z,37.98
2023-04-09T03:27:25.000Z,38.6
2023-04-09T03:32:26.000Z,35.37
2023-04-09T03:37:25.000Z,33.31
2023-04-09T03:42:26.000Z,31.34
2023-04-09T03:47:25.000Z,30.95
2023-04-09T03:52:25.000Z,29.55
2023-04-09T03:57:25.000Z,21.99
2023-04-09T04:02:25.000Z,15.9
2023-04-09T04:07:25.000Z,15.38
2023-04-09T04:12:25.000Z,14.34
2023-04-09T04:17:25.000Z,14.37
2023-04-09T04:22:25.000Z,14.17
2023-04-09T04:27:26.000Z,14.39
2023-04-09T04:32:25.000Z,14.02
2023-04-09T04:37:25.000Z,13.95
2023-04-09T04:42:25.000Z,13.98
2023-04-09T04:47:25.000Z,14.21
2023-04-09T04:52:25.000Z,14.53
2023-04-09T04:57:25.000Z,14.58
2023-04-09T05:02:25.000Z,14.78
2023-04-09T05:07:25.000Z,14.89
2023-04-09T05:12:25.000Z,15.46
2023-04-09T05:17:25.000Z,15.59
2023-04-09T05:22:25.000Z,15.92
2023-04-09T05:27:25.000Z,16.25
2023-04-09T05:32:25.000Z,16.1
2023-04-09T05:37:26.000Z,15.85
2023-04-09T05:42:26.000Z,16.3
2023-04-09T05:47:25.000Z,15.8
2023-04-09T05:52:25.000Z,15.57
2023-04-09T05:57:25.000Z,15.33
2023-04-09T06:02:25.000Z,15.2
2023-04-09T06:07:26.000Z,16.27
2023-04-09T06:12:25.000Z,16.36
2023-04-09T06:17:25.000Z,15.86
2023-04-09T06:22:25.000Z,15.5
2023-04-09T06:27:25.000Z,15.13
2023-04-09T06:32:25.000Z,14.58
2023-04-09T06:37:25.000Z,14.86
2023-04-09T06:42:25.000Z,15.46
2023-04-09T06:47:25.000Z,14.53
2023-04-09T06:52:25.000Z,13.62
2023-04-09T06:57:25.000Z,13.77
2023-04-09T07:02:25.000Z,13.58
2023-04-09T07:07:24.000Z,13.54
2023-04-09T07:12:25.000Z,14.27
2023-04-09T07:17:26.000Z,13.79
2023-04-09T07:22:26.000Z,13.79
2023-04-09T07:27:25.000Z,13.69
2023-04-09T07:32:26.000Z,14.27
2023-04-09T07:37:25.000Z,14.09
2023-04-09T07:42:25.000Z,12.84
2023-04-09T07:47:25.000Z,13.76
2023-04-09T07:52:25.000Z,12.25
2023-04-09T07:57:25.000Z,11.73
2023-04-09T08:02:25.000Z,12.92
2023-04-09T08:07:25.000Z,12.49
2023-04-09T08:12:25.000Z,11.85
2023-04-09T08:17:25.000Z,10.66
2023-04-09T08:22:25.000Z,10.15
2023-04-09T08:27:25.000Z,10.18
2023-04-09T08:32:25.000Z,10.28
2023-04-09T08:37:25.000Z,8.5
2023-04-09T08:42:25.000Z,8.23
2023-04-09T08:47:26.000Z,9.09
2023-04-09T08:52:25.000Z,10.27
2023-04-09T08:57:26.000Z,9.27
2023-04-09T09:02:25.000Z,9.17
2023-04-09T09:07:25.000Z,9.26
2023-04-09T09:12:25.000Z,8.81
2023-04-09T09:17:26.000Z,9.03
2023-04-09T09:22:25.000Z,8.77
2023-04-09T09:27:25.000Z,8.76
2023-04-09T09:32:25.000Z,8.82
2023-04-09T09:37:25.000Z,8.8
2023-04-09T09:42:25.000Z,8.62
2023-04-09T09:47:26.000Z,8.26
2023-04-09T09:52:25.000Z,8.97
2023-04-09T09:57:26.000Z,8.65
2023-04-09T10:02:25.000Z,9.69
2023-04-09T10:07:25.000Z,8.6
2023-04-09T10:12:25.000Z,8.95
2023-04-09T10:17:26.000Z,9.1
2023-04-09T10:22:26.000Z,9.39
2023-04-09T10:27:25.000Z,9.41
2023-04-09T10:32:25.000Z,9.32
2023-04-09T10:37:26.000Z,9.68
2023-04-09T10:42:25.000Z,10.33
2023-04-09T10:47:26.000Z,10.01
2023-04-09T10:52:26.000Z,9.64
2023-04-09T10:57:25.000Z,8.79
2023-04-09T11:02:26.000Z,8.67
2023-04-09T11:07:25.000Z,9.42
2023-04-09T11:12:26.000Z,9.32
2023-04-09T11:17:26.000Z,9.16
2023-04-09T11:22:26.000Z,9.53
2023-04-09T11:27:26.000Z,9.35
2023-04-09T11:32:26.000Z,9.33
2023-04-09T11:37:26.000Z,9.6
2023-04-09T11:42:26.000Z,9.17
2023-04-09T11:47:25.000Z,9.67
2023-04-09T11:52:26.000Z,8.9
2023-04-09T11:57:25.000Z,9.43
2023-04-09T12:02:26.000Z,9.49
2023-04-09T12:07:25.000Z,9.38
2023-04-09T12:12:25.000Z,9.14
2023-04-09T12:17:25.000Z,9.97
2023-04-09T12:22:26.000Z,10
2023-04-09T12:27:25.000Z,10.56
2023-04-09T12:32:26.000Z,10.13
2023-04-09T12:37:25.000Z,10.25
2023-04-09T12:42:25.000Z,10.35
2023-04-09T12:47:25.000Z,10.14
2023-04-09T12:52:25.000Z,10.29
2023-04-09T12:57:25.000Z,10.33
2023-04-09T13:02:25.000Z,10.35
2023-04-09T13:07:26.000Z,10.54
2023-04-09T13:12:25.000Z,10.28
2023-04-09T13:17:24.000Z,10.03
2023-04-09T13:22:25.000Z,10.02
2023-04-09T13:27:25.000Z,10.06
2023-04-09T13:32:25.000Z,9.4
2023-04-09T13:37:25.000Z,9.3
2023-04-09T13:42:25.000Z,9.3
2023-04-09T13:47:26.000Z,9.52
2023-04-09T13:52:26.000Z,9.52
2023-04-09T13:57:26.000Z,10.19
2023-04-09T14:02:26.000Z,10.06
2023-04-09T14:07:25.000Z,10.45
2023-04-09T14:12:25.000Z,9.69
2023-04-09T14:17:25.000Z,9.8
2023-04-09T14:22:25.000Z,10.14
2023-04-09T14:27:26.000Z,9.91
2023-04-09T14:32:25.000Z,10.5
2023-04-09T14:37:25.000Z,10.71
2023-04-09T14:42:25.000Z,10.45
2023-04-09T14:47:25.000Z,10.69
2023-04-09T14:52:25.000Z,10.58
2023-04-09T14:57:25.000Z,9.97
2023-04-09T15:02:25.000Z,10.37
2023-04-09T15:07:25.000Z,10.63
2023-04-09T15:12:25.000Z,11.22
2023-04-09T15:17:25.000Z,11.47
2023-04-09T15:22:26.000Z,12.45
2023-04-09T15:27:25.000Z,15.29
2023-04-09T15:32:25.000Z,15.77
2023-04-09T15:37:25.000Z,15.67
2023-04-09T15:42:25.000Z,15.52
2023-04-09T15:47:25.000Z,15.4
2023-04-09T15:52:25.000Z,17.11
2023-04-09T15:57:25.000Z,16.89
2023-04-09T16:02:25.000Z,15.89
2023-04-09T16:07:25.000Z,16.51
2023-04-09T16:12:26.000Z,18.79
2023-04-09T16:17:25.000Z,18.78
2023-04-09T16:22:25.000Z,21.11
2023-04-09T16:27:25.000Z,21.53
2023-04-09T16:32:26.000Z,19.17
2023-04-09T16:37:26.000Z,20
2023-04-09T16:42:25.000Z,20.18
2023-04-09T16:47:25.000Z,20.97
2023-04-09T16:52:25.000Z,18.88
2023-04-09T16:57:26.000Z,16.11
2023-04-09T17:02:27.000Z,18.92
2023-04-09T17:07:26.000Z,23.12
2023-04-09T17:12:25.000Z,24.86
2023-04-09T17:17:25.000Z,22.9
2023-04-09T17:22:25.000Z,21.51
2023-04-09T17:27:25.000Z,21.09
2023-04-09T17:32:26.000Z,20.59
2023-04-09T17:37:25.000Z,21.56
2023-04-09T17:42:25.000Z,22
2023-04-09T17:47:25.000Z,24.5
2023-04-09T17:52:25.000Z,24.65
2023-04-09T17:57:26.000Z,23.32
2023-04-09T18:02:26.000Z,25.1
2023-04-09T18:07:25.000Z,24.58
2023-04-09T18:12:26.000Z,23.83
2023-04-09T18:17:25.000Z,23.59
2023-04-09T18:22:25.000Z,25.86
2023-04-09T18:27:26.000Z,27.91
2023-04-09T18:32:25.000Z,26.73
2023-04-09T18:37:26.000Z,25.83
2023-04-09T18:42:25.000Z,24.78
2023-04-09T18:47:25.000Z,23.98
2023-04-09T18:52:26.000Z,23.91
2023-04-09T18:57:25.000Z,24.58
2023-04-09T19:02:25.000Z,24.18
2023-04-09T19:07:25.000Z,23.63
2023-04-09T19:12:25.000Z,22.59
2023-04-09T19:17:25.000Z,23.2
2023-04-09T19:22:26.000Z,21.18
2023-04-09T19:27:25.000Z,21.13
2023-04-09T19:32:25.000Z,21.5
2023-04-09T19:37:25.000Z,22.62
2023-04-09T19:42:25.000Z,22.23
2023-04-09T19:47:26.000Z,22.1
2023-04-09T19:52:25.000Z,23.38
2023-04-09T19:57:25.000Z,24.41
2023-04-09T20:02:26.000Z,29.38
2023-04-09T20:07:25.000Z,29.21
2023-04-09T20:12:26.000Z,29.4
2023-04-09T20:17:26.000Z,32.66
2023-04-09T20:22:25.000Z,33.4
2023-04-09T20:27:26.000Z,34.15
2023-04-09T20:32:25.000Z,41
2023-04-09T20:37:25.000Z,45.17
2023-04-09T20:42:26.000Z,45.97
2023-04-09T20:47:25.000Z,44.64
2023-04-09T20:52:25.000Z,36.71
2023-04-09T20:57:26.000Z,31.66
2023-04-09T21:02:25.000Z,27.02
2023-04-09T21:07:25.000Z,24.9
2023-04-09T21:12:25.000Z,25.88
2023-04-09T21:17:25.000Z,24.4
2023-04-09T21:22:25.000Z,27.42
2023-04-09T21:27:25.000Z,31.18
2023-04-09T21:32:25.000Z,25.94
2023-04-09T21:37:25.000Z,23.92
2023-04-09T21:42:25.000Z,23.23
2023-04-09T21:47:26.000Z,23.59
2023-04-09T21:52:25.000Z,26.93
2023-04-09T21:57:25.000Z,29.9
2023-04-09T22:02:25.000Z,32.2
2023-04-09T22:07:25.000Z,33.6
2023-04-09T22:12:25.000Z,34.58
2023-04-09T22:17:25.000Z,40.54
2023-04-09T22:22:25.000Z,42.92
2023-04-09T22:27:25.000Z,42.81
2023-04-09T22:32:25.000Z,39.93
2023-04-09T22:37:25.000Z,36.83
2023-04-09T22:42:25.000Z,38.47
2023-04-09T22:47:25.000Z,44.4
2023-04-09T22:52:25.000Z,46.83
2023-04-09T22:57:25.000Z,47.7
2023-04-09T23:02:25.000Z,55.29
2023-04-09T23:07:26.000Z,54.28
2023-04-09T23:12:25.000Z,52.32
2023-04-09T23:17:25.000Z,51.4
2023-04-09T23:22:25.000Z,49.57
2023-04-09T23:27:25.000Z,45.93
2023-04-09T23:32:26.000Z,44.76
2023-04-09T23:37:25.000Z,45.99
2023-04-09T23:42:25.000Z,46.24
2023-04-09T23:47:26.000Z,44.59
2023-04-09T23:52:25.000Z,44.23
2023-04-09T23:57:26.000Z,48.74
